createdAt,value
2017-10-31T00:00:10.829Z,0
2017-10-31T00:01:20.795Z,0
2017-10-31T00:02:31.079Z,0
2017-10-31T00:03:41.049Z,0
2017-10-31T00:04:51.027Z,0
2017-10-31T00:06:01.565Z,0
2017-10-31T00:07:11.532Z,0
2017-10-31T00:08:21.862Z,0
2017-10-31T00:09:31.827Z,0
2017-10-31T00:10:41.791Z,0
2017-10-31T00:11:52.020Z,0
2017-10-31T00:13:02.324Z,0
2017-10-31T00:14:12.616Z,0
2017-10-31T00:15:22.902Z,0
2017-10-31T00:16:32.558Z,0
2017-10-31T00:17:42.447Z,0
2017-10-31T00:18:52.417Z,0
2017-10-31T00:20:02.713Z,0
2017-10-31T00:21:13.004Z,0
2017-10-31T00:22:23.295Z,0
2017-10-31T00:23:33.612Z,0
2017-10-31T00:24:43.899Z,0
2017-10-31T00:25:53.867Z,0
2017-10-31T00:27:04.163Z,0
2017-10-31T00:28:14.125Z,0
2017-10-31T00:29:24.667Z,0
2017-10-31T00:30:34.969Z,0
2017-10-31T00:31:45.277Z,0
2017-10-31T00:32:55.276Z,0
2017-10-31T00:34:05.242Z,0
2017-10-31T00:35:15.792Z,0
2017-10-31T00:36:26.076Z,0
2017-10-31T00:37:36.374Z,0
2017-10-31T00:38:46.348Z,0
2017-10-31T00:39:55.998Z,0
2017-10-31T00:41:05.567Z,0
2017-10-31T00:42:15.858Z,0
2017-10-31T00:43:26.160Z,0
2017-10-31T00:44:36.455Z,0
2017-10-31T00:45:46.758Z,0
2017-10-31T00:46:56.973Z,0
2017-10-31T00:48:07.274Z,0
2017-10-31T00:49:17.567Z,0
2017-10-31T00:50:27.559Z,0
2017-10-31T00:51:37.871Z,0
2017-10-31T00:52:48.410Z,0
2017-10-31T00:53:58.371Z,0
2017-10-31T00:55:08.337Z,0
2017-10-31T00:56:18.321Z,0
2017-10-31T00:57:28.618Z,0
2017-10-31T00:58:38.819Z,0
2017-10-31T00:59:49.128Z,0
2017-10-31T01:00:59.427Z,0
2017-10-31T01:02:09.731Z,0
2017-10-31T01:03:20.019Z,0
2017-10-31T01:04:30.568Z,0
2017-10-31T01:05:40.879Z,0
2017-10-31T01:06:51.184Z,0
2017-10-31T01:08:01.144Z,0
2017-10-31T01:09:11.424Z,0
2017-10-31T01:10:21.989Z,0
2017-10-31T01:11:31.626Z,0
2017-10-31T01:12:41.955Z,0
2017-10-31T01:13:52.249Z,0
2017-10-31T01:15:02.211Z,0
2017-10-31T01:16:12.749Z,0
2017-10-31T01:17:23.060Z,0
2017-10-31T01:18:33.350Z,0
2017-10-31T01:19:43.638Z,0
2017-10-31T01:20:53.937Z,0
2017-10-31T01:22:04.477Z,0
2017-10-31T01:23:14.784Z,0
2017-10-31T01:24:24.747Z,0
2017-10-31T01:25:35.043Z,0
2017-10-31T01:26:45.339Z,0
2017-10-31T01:27:55.542Z,0
2017-10-31T01:29:05.861Z,0
2017-10-31T01:30:15.843Z,0
2017-10-31T01:31:26.157Z,0
2017-10-31T01:32:36.447Z,0
2017-10-31T01:33:46.988Z,0
2017-10-31T01:34:57.285Z,0
2017-10-31T01:36:07.565Z,0
2017-10-31T01:37:17.532Z,0
2017-10-31T01:38:27.839Z,0
2017-10-31T01:39:38.376Z,0
2017-10-31T01:40:48.674Z,0
2017-10-31T01:41:58.964Z,0
2017-10-31T01:43:08.941Z,0
2017-10-31T01:44:19.242Z,0
2017-10-31T01:45:29.473Z,0
2017-10-31T01:46:39.764Z,0
2017-10-31T01:47:49.726Z,0
2017-10-31T01:49:00.013Z,0
2017-10-31T01:50:10.305Z,0
2017-10-31T01:51:20.863Z,0
2017-10-31T01:52:30.824Z,0
2017-10-31T01:53:41.119Z,0
2017-10-31T01:54:51.406Z,0
2017-10-31T01:56:01.703Z,0
2017-10-31T01:57:11.915Z,0
2017-10-31T01:58:22.203Z,0
2017-10-31T01:59:32.186Z,0
2017-10-31T02:00:42.472Z,0
2017-10-31T02:01:52.761Z,0
2017-10-31T02:03:02.973Z,0
2017-10-31T02:04:13.269Z,0
2017-10-31T02:05:23.234Z,0
2017-10-31T02:06:33.191Z,0
2017-10-31T02:07:43.180Z,0
2017-10-31T02:08:53.387Z,0
2017-10-31T02:10:03.685Z,0
2017-10-31T02:11:13.971Z,0
2017-10-31T02:12:23.280Z,0
2017-10-31T02:13:33.577Z,0
2017-10-31T02:14:44.127Z,0
2017-10-31T02:15:54.414Z,0
2017-10-31T02:17:04.375Z,0
2017-10-31T02:18:14.007Z,0
2017-10-31T02:19:23.970Z,0
2017-10-31T02:20:34.520Z,0
2017-10-31T02:21:44.487Z,0
2017-10-31T02:22:54.438Z,0
2017-10-31T02:24:04.734Z,0
2017-10-31T02:25:15.044Z,0
2017-10-31T02:26:25.271Z,0
2017-10-31T02:27:35.232Z,0
2017-10-31T02:28:44.862Z,0
2017-10-31T02:29:54.844Z,0
2017-10-31T02:31:05.156Z,0
2017-10-31T02:32:15.693Z,0
2017-10-31T02:33:25.991Z,0
2017-10-31T02:34:36.282Z,0
2017-10-31T02:35:46.599Z,0
2017-10-31T02:36:56.899Z,0
2017-10-31T02:38:07.108Z,0
2017-10-31T02:39:17.087Z,0
2017-10-31T02:40:27.053Z,0
2017-10-31T02:41:37.352Z,0
2017-10-31T02:42:47.329Z,0
2017-10-31T02:43:57.866Z,0
2017-10-31T02:45:08.170Z,0
2017-10-31T02:46:18.476Z,0
2017-10-31T02:47:28.764Z,0
2017-10-31T02:48:39.067Z,0
2017-10-31T02:49:49.652Z,0
2017-10-31T02:50:59.941Z,0
2017-10-31T02:52:09.904Z,0
2017-10-31T02:53:19.884Z,0
2017-10-31T02:54:29.850Z,0
2017-10-31T02:55:40.081Z,0
2017-10-31T02:56:50.387Z,0
2017-10-31T02:58:00.700Z,0
2017-10-31T02:59:11.003Z,0
2017-10-31T03:00:21.305Z,0
2017-10-31T03:01:31.532Z,0
2017-10-31T03:02:41.823Z,0
2017-10-31T03:03:51.148Z,0
2017-10-31T03:05:01.452Z,0
2017-10-31T03:06:11.741Z,0
2017-10-31T03:07:22.273Z,0
2017-10-31T03:08:32.565Z,0
2017-10-31T03:09:42.878Z,0
2017-10-31T03:10:53.158Z,0
2017-10-31T03:12:03.157Z,0
2017-10-31T03:13:13.699Z,0
2017-10-31T03:14:23.667Z,0
2017-10-31T03:15:33.632Z,0
2017-10-31T03:16:43.915Z,0
2017-10-31T03:17:54.195Z,0
2017-10-31T03:19:04.740Z,0
2017-10-31T03:20:14.707Z,0
2017-10-31T03:21:25.008Z,0
2017-10-31T03:22:35.311Z,0
2017-10-31T03:23:45.592Z,0
2017-10-31T03:24:55.857Z,0
2017-10-31T03:26:06.148Z,0
2017-10-31T03:27:16.128Z,0
2017-10-31T03:28:26.423Z,0
2017-10-31T03:29:36.716Z,0
2017-10-31T03:30:47.268Z,0
2017-10-31T03:31:57.231Z,0
2017-10-31T03:33:07.521Z,0
2017-10-31T03:34:17.811Z,0
2017-10-31T03:35:28.101Z,0
2017-10-31T03:36:38.658Z,0
2017-10-31T03:37:48.955Z,0
2017-10-31T03:38:59.252Z,0
2017-10-31T03:40:09.550Z,0
2017-10-31T03:41:19.838Z,0
2017-10-31T03:42:30.413Z,0
2017-10-31T03:43:40.707Z,0
2017-10-31T03:44:50.666Z,0
2017-10-31T03:46:00.971Z,0
2017-10-31T03:47:11.270Z,0
2017-10-31T03:48:21.802Z,0
2017-10-31T03:49:32.101Z,0
2017-10-31T03:50:42.393Z,0
2017-10-31T03:51:52.707Z,0
2017-10-31T03:53:03.001Z,0
2017-10-31T03:54:13.541Z,0
2017-10-31T03:55:23.838Z,0
2017-10-31T03:56:33.812Z,0
2017-10-31T03:57:43.778Z,0
2017-10-31T03:58:54.076Z,0
2017-10-31T04:00:04.627Z,0
2017-10-31T04:01:14.576Z,0
2017-10-31T04:02:24.863Z,0
2017-10-31T04:03:35.163Z,0
2017-10-31T04:04:45.123Z,0
2017-10-31T04:05:55.653Z,0
2017-10-31T04:07:05.630Z,0
2017-10-31T04:08:15.923Z,0
2017-10-31T04:09:26.211Z,0
2017-10-31T04:10:36.166Z,0
2017-10-31T04:11:46.381Z,0
2017-10-31T04:12:56.666Z,0
2017-10-31T04:14:06.958Z,0
2017-10-31T04:15:16.587Z,0
2017-10-31T04:16:26.877Z,0
2017-10-31T04:17:37.413Z,0
2017-10-31T04:18:47.366Z,0
2017-10-31T04:19:57.652Z,0
2017-10-31T04:21:07.938Z,0
2017-10-31T04:22:18.231Z,0
2017-10-31T04:23:28.129Z,0
2017-10-31T04:24:38.427Z,0
2017-10-31T04:25:48.382Z,0
2017-10-31T04:26:58.341Z,0
2017-10-31T04:28:08.619Z,0
2017-10-31T04:29:18.839Z,0
2017-10-31T04:30:29.122Z,0
2017-10-31T04:31:39.418Z,0
2017-10-31T04:32:49.388Z,0
2017-10-31T04:33:59.674Z,0
2017-10-31T04:35:10.281Z,0
2017-10-31T04:36:19.911Z,0
2017-10-31T04:37:29.552Z,0
2017-10-31T04:38:39.842Z,0
2017-10-31T04:39:50.135Z,0
2017-10-31T04:41:00.345Z,0
2017-10-31T04:42:09.976Z,0
2017-10-31T04:43:19.940Z,0
2017-10-31T04:44:29.904Z,0
2017-10-31T04:45:40.185Z,0
2017-10-31T04:46:50.733Z,0
2017-10-31T04:48:01.018Z,0
2017-10-31T04:49:10.984Z,0
2017-10-31T04:50:20.938Z,0
2017-10-31T04:51:31.213Z,0
2017-10-31T04:52:41.435Z,0
2017-10-31T04:53:51.714Z,0
2017-10-31T04:55:01.678Z,0
2017-10-31T04:56:11.966Z,0
2017-10-31T04:57:22.250Z,0
2017-10-31T04:58:32.789Z,0
2017-10-31T04:59:43.062Z,0
2017-10-31T05:00:53.362Z,0
2017-10-31T05:02:03.655Z,0
2017-10-31T05:03:13.613Z,0
2017-10-31T05:04:24.151Z,0
2017-10-31T05:05:34.439Z,0
2017-10-31T05:06:44.737Z,0
2017-10-31T05:07:54.700Z,0
2017-10-31T05:09:05.003Z,0
2017-10-31T05:10:15.221Z,0
2017-10-31T05:11:25.187Z,0
2017-10-31T05:12:35.157Z,0
2017-10-31T05:13:45.443Z,0
2017-10-31T05:14:55.401Z,0
2017-10-31T05:16:05.334Z,0
2017-10-31T05:17:14.969Z,0
2017-10-31T05:18:25.261Z,0
2017-10-31T05:19:35.553Z,0
2017-10-31T05:20:45.863Z,0
2017-10-31T05:21:56.076Z,0
2017-10-31T05:23:06.353Z,0
2017-10-31T05:24:16.315Z,4
2017-10-31T05:25:26.595Z,4
2017-10-31T05:26:36.557Z,0
2017-10-31T05:27:47.100Z,4
2017-10-31T05:28:57.382Z,4
2017-10-31T05:30:07.350Z,0
2017-10-31T05:31:17.636Z,4
2017-10-31T05:32:27.937Z,8
2017-10-31T05:33:38.470Z,4
2017-10-31T05:34:48.440Z,4
2017-10-31T05:35:58.731Z,8
2017-10-31T05:37:09.014Z,12
2017-10-31T05:38:19.310Z,12
2017-10-31T05:39:29.847Z,12
2017-10-31T05:40:40.133Z,20
2017-10-31T05:41:50.426Z,24
2017-10-31T05:43:00.719Z,24
2017-10-31T05:44:11.014Z,28
2017-10-31T05:45:21.549Z,36
2017-10-31T05:46:31.179Z,40
2017-10-31T05:47:41.458Z,48
2017-10-31T05:48:51.104Z,56
2017-10-31T05:50:01.075Z,64
2017-10-31T05:51:11.629Z,80
2017-10-31T05:52:21.913Z,84
2017-10-31T05:53:31.883Z,96
2017-10-31T05:54:42.168Z,120
2017-10-31T05:55:52.458Z,136
2017-10-31T05:57:02.331Z,156
2017-10-31T05:58:12.292Z,168
2017-10-31T05:59:22.571Z,188
2017-10-31T06:00:32.875Z,204
2017-10-31T06:01:43.154Z,224
2017-10-31T06:02:53.709Z,252
2017-10-31T06:04:04.105Z,260
2017-10-31T06:05:14.415Z,288
2017-10-31T06:06:24.384Z,304
2017-10-31T06:07:34.362Z,332
2017-10-31T06:08:44.899Z,332
2017-10-31T06:09:54.884Z,372
2017-10-31T06:11:05.166Z,404
2017-10-31T06:12:15.153Z,432
2017-10-31T06:13:25.125Z,460
2017-10-31T06:14:35.667Z,500
2017-10-31T06:15:45.976Z,496
2017-10-31T06:16:56.286Z,532
2017-10-31T06:18:06.257Z,544
2017-10-31T06:19:16.580Z,600
2017-10-31T06:20:27.125Z,660
2017-10-31T06:21:37.090Z,688
2017-10-31T06:22:46.731Z,752
2017-10-31T06:23:57.013Z,792
2017-10-31T06:25:07.310Z,884
2017-10-31T06:26:17.847Z,892
2017-10-31T06:27:28.131Z,988
2017-10-31T06:28:38.414Z,1064
2017-10-31T06:29:48.712Z,1068
2017-10-31T06:30:58.360Z,1060
2017-10-31T06:32:08.889Z,1188
2017-10-31T06:33:18.852Z,1304
2017-10-31T06:34:28.492Z,1288
2017-10-31T06:35:38.804Z,1328
2017-10-31T06:36:48.785Z,1372
2017-10-31T06:37:59.328Z,1368
2017-10-31T06:39:08.636Z,1428
2017-10-31T06:40:18.594Z,1460
2017-10-31T06:41:28.561Z,1464
2017-10-31T06:42:38.859Z,1432
2017-10-31T06:43:49.397Z,1328
2017-10-31T06:44:59.372Z,1264
2017-10-31T06:46:09.668Z,1384
2017-10-31T06:47:19.957Z,1508
2017-10-31T06:48:29.607Z,1676
2017-10-31T06:49:40.208Z,1896
2017-10-31T06:50:50.495Z,2048
2017-10-31T06:52:00.458Z,2104
2017-10-31T06:53:10.747Z,2064
2017-10-31T06:54:21.037Z,1996
2017-10-31T06:55:31.307Z,2076
2017-10-31T06:56:41.605Z,2124
2017-10-31T06:57:51.269Z,2092
2017-10-31T06:59:01.554Z,2208
2017-10-31T07:00:11.854Z,2332
2017-10-31T07:01:22.056Z,2500
2017-10-31T07:02:32.379Z,2628
2017-10-31T07:03:42.356Z,2732
2017-10-31T07:04:52.637Z,2700
2017-10-31T07:06:02.919Z,2620
2017-10-31T07:07:13.509Z,2528
2017-10-31T07:08:23.472Z,2468
2017-10-31T07:09:33.758Z,2596
2017-10-31T07:10:44.045Z,2600
2017-10-31T07:11:54.339Z,2608
2017-10-31T07:13:04.875Z,2356
2017-10-31T07:14:15.191Z,2444
2017-10-31T07:15:25.492Z,2740
2017-10-31T07:16:35.783Z,2812
2017-10-31T07:17:46.083Z,2720
2017-10-31T07:18:55.967Z,2732
2017-10-31T07:20:06.264Z,2580
2017-10-31T07:21:16.554Z,2584
2017-10-31T07:22:26.515Z,2792
2017-10-31T07:23:36.832Z,3052
2017-10-31T07:24:46.710Z,3092
2017-10-31T07:25:56.688Z,2828
2017-10-31T07:27:06.657Z,2960
2017-10-31T07:28:16.637Z,3504
2017-10-31T07:29:26.598Z,3424
2017-10-31T07:30:37.157Z,3404
2017-10-31T07:31:47.127Z,3768
2017-10-31T07:32:57.422Z,3708
2017-10-31T07:34:07.707Z,3700
2017-10-31T07:35:18.017Z,3776
2017-10-31T07:36:28.574Z,3896
2017-10-31T07:37:38.540Z,3744
2017-10-31T07:38:48.835Z,3184
2017-10-31T07:39:58.153Z,3384
2017-10-31T07:41:08.453Z,3752
2017-10-31T07:42:18.694Z,4064
2017-10-31T07:43:28.986Z,3960
2017-10-31T07:44:39.286Z,3852
2017-10-31T07:45:49.576Z,3972
2017-10-31T07:46:59.887Z,4364
2017-10-31T07:48:10.107Z,4428
2017-10-31T07:49:20.434Z,4788
2017-10-31T07:50:30.738Z,4960
2017-10-31T07:51:41.032Z,5124
2017-10-31T07:52:51.324Z,5116
2017-10-31T07:54:01.543Z,4916
2017-10-31T07:55:11.833Z,5340
2017-10-31T07:56:22.136Z,5472
2017-10-31T07:57:32.102Z,5572
2017-10-31T07:58:42.084Z,5572
2017-10-31T07:59:51.963Z,5372
2017-10-31T08:01:02.255Z,5536
2017-10-31T08:02:12.459Z,5840
2017-10-31T08:03:22.094Z,5852
2017-10-31T08:04:32.391Z,5484
2017-10-31T08:05:42.628Z,5692
2017-10-31T08:06:52.595Z,5288
2017-10-31T08:08:02.896Z,5336
2017-10-31T08:09:12.857Z,5464
2017-10-31T08:10:22.821Z,5900
2017-10-31T08:11:33.363Z,5972
2017-10-31T08:12:43.663Z,6360
2017-10-31T08:13:53.636Z,6756
2017-10-31T08:15:03.924Z,6868
2017-10-31T08:16:13.905Z,6836
2017-10-31T08:17:24.458Z,6848
2017-10-31T08:18:34.756Z,6832
2017-10-31T08:19:45.048Z,6932
2017-10-31T08:20:55.016Z,6632
2017-10-31T08:22:04.974Z,7328
2017-10-31T08:23:15.530Z,7728
2017-10-31T08:24:25.822Z,8280
2017-10-31T08:25:36.112Z,8696
2017-10-31T08:26:46.419Z,8748
2017-10-31T08:27:56.380Z,8572
2017-10-31T08:29:06.593Z,9144
2017-10-31T08:30:16.893Z,9152
2017-10-31T08:31:27.215Z,8596
2017-10-31T08:32:37.508Z,7936
2017-10-31T08:33:47.472Z,8512
2017-10-31T08:34:57.704Z,8544
2017-10-31T08:36:07.987Z,9596
2017-10-31T08:37:17.966Z,10380
2017-10-31T08:38:28.259Z,11100
2017-10-31T08:39:38.550Z,11668
2017-10-31T08:40:49.111Z,12240
2017-10-31T08:41:58.752Z,12380
2017-10-31T08:43:08.716Z,12108
2017-10-31T08:44:18.691Z,11632
2017-10-31T08:45:28.991Z,11372
2017-10-31T08:46:39.542Z,11172
2017-10-31T08:47:49.827Z,10640
2017-10-31T08:49:00.540Z,10780
2017-10-31T08:50:10.830Z,11356
2017-10-31T08:51:21.128Z,11616
2017-10-31T08:52:31.364Z,12212
2017-10-31T08:53:41.653Z,13020
2017-10-31T08:54:51.672Z,13424
2017-10-31T08:56:01.665Z,14592
2017-10-31T08:57:11.638Z,14876
2017-10-31T08:58:21.891Z,15888
2017-10-31T08:59:31.856Z,14032
2017-10-31T09:00:42.147Z,16384
2017-10-31T09:01:52.440Z,14940
2017-10-31T09:03:02.738Z,13480
2017-10-31T09:04:13.304Z,12308
2017-10-31T09:05:23.593Z,16624
2017-10-31T09:06:33.898Z,17920
2017-10-31T09:07:44.206Z,16188
2017-10-31T09:08:54.516Z,15036
2017-10-31T09:10:05.107Z,13952
2017-10-31T09:11:15.417Z,15164
2017-10-31T09:12:25.710Z,14268
2017-10-31T09:13:36.011Z,15368
2017-10-31T09:14:46.308Z,14664
2017-10-31T09:15:56.873Z,13532
2017-10-31T09:17:07.190Z,14096
2017-10-31T09:18:17.489Z,14388
2017-10-31T09:19:27.460Z,15468
2017-10-31T09:20:37.756Z,15980
2017-10-31T09:21:48.297Z,14976
2017-10-31T09:22:58.607Z,16276
2017-10-31T09:24:08.917Z,17280
2017-10-31T09:25:19.221Z,16996
2017-10-31T09:26:29.509Z,17192
2017-10-31T09:27:40.048Z,18976
2017-10-31T09:28:50.014Z,19808
2017-10-31T09:30:00.317Z,19616
2017-10-31T09:31:09.966Z,19232
2017-10-31T09:32:20.287Z,18304
2017-10-31T09:33:30.832Z,15916
2017-10-31T09:34:40.514Z,14376
2017-10-31T09:35:50.818Z,12740
2017-10-31T09:37:00.788Z,13200
2017-10-31T09:38:11.077Z,13744
2017-10-31T09:39:21.633Z,14128
2017-10-31T09:40:31.611Z,12952
2017-10-31T09:41:41.279Z,12940
2017-10-31T09:42:51.245Z,12544
2017-10-31T09:44:01.549Z,12864
2017-10-31T09:45:11.777Z,12680
2017-10-31T09:46:21.438Z,12976
2017-10-31T09:47:31.734Z,13980
2017-10-31T09:48:41.702Z,15264
2017-10-31T09:49:51.986Z,16256
2017-10-31T09:51:02.235Z,15640
2017-10-31T09:52:12.521Z,16012
2017-10-31T09:53:22.817Z,14688
2017-10-31T09:54:33.111Z,14396
2017-10-31T09:55:43.076Z,15996
2017-10-31T09:56:53.660Z,16464
2017-10-31T09:58:03.963Z,15704
2017-10-31T09:59:13.950Z,14792
2017-10-31T10:00:23.267Z,16108
2017-10-31T10:01:33.239Z,15776
2017-10-31T10:02:43.460Z,14968
2017-10-31T10:03:53.770Z,15828
2017-10-31T10:05:04.064Z,15552
2017-10-31T10:06:14.382Z,15408
2017-10-31T10:07:24.341Z,16768
2017-10-31T10:08:34.900Z,15208
2017-10-31T10:09:45.196Z,16492
2017-10-31T10:10:54.842Z,17440
2017-10-31T10:12:05.147Z,15624
2017-10-31T10:13:15.115Z,13452
2017-10-31T10:14:25.673Z,15156
2017-10-31T10:15:35.634Z,15492
2017-10-31T10:16:44.960Z,16168
2017-10-31T10:17:55.258Z,17792
2017-10-31T10:19:05.240Z,18976
2017-10-31T10:20:15.833Z,19872
2017-10-31T10:21:26.133Z,18592
2017-10-31T10:22:36.452Z,16756
2017-10-31T10:23:46.442Z,18016
2017-10-31T10:24:56.766Z,18784
2017-10-31T10:26:07.322Z,18144
2017-10-31T10:27:17.295Z,17096
2017-10-31T10:28:27.292Z,16260
2017-10-31T10:29:37.601Z,14888
2017-10-31T10:30:47.250Z,14096
2017-10-31T10:31:57.792Z,13108
2017-10-31T10:33:07.792Z,12596
2017-10-31T10:34:18.101Z,12724
2017-10-31T10:35:28.426Z,11968
2017-10-31T10:36:38.738Z,11760
2017-10-31T10:37:49.358Z,11460
2017-10-31T10:38:59.016Z,12568
2017-10-31T10:40:08.984Z,12832
2017-10-31T10:41:18.622Z,12340
2017-10-31T10:42:28.598Z,11580
2017-10-31T10:43:38.853Z,10852
2017-10-31T10:44:48.497Z,11704
2017-10-31T10:45:58.496Z,11452
2017-10-31T10:47:08.470Z,13536
2017-10-31T10:48:18.441Z,14256
2017-10-31T10:49:29.032Z,14180
2017-10-31T10:50:39.338Z,14136
2017-10-31T10:51:49.641Z,12968
2017-10-31T10:53:00.283Z,14164
2017-10-31T10:54:10.592Z,13952
2017-10-31T10:55:20.823Z,14488
2017-10-31T10:56:31.118Z,15472
2017-10-31T10:57:41.089Z,15684
2017-10-31T10:58:51.451Z,15604
2017-10-31T11:00:01.748Z,16140
2017-10-31T11:01:12.324Z,16632
2017-10-31T11:02:22.641Z,18368
2017-10-31T11:03:32.617Z,17184
2017-10-31T11:04:42.935Z,15360
2017-10-31T11:05:53.250Z,16376
2017-10-31T11:07:03.799Z,16024
2017-10-31T11:08:14.093Z,16172
2017-10-31T11:09:24.098Z,17128
2017-10-31T11:10:34.399Z,20192
2017-10-31T11:11:44.715Z,17984
2017-10-31T11:12:55.270Z,18112
2017-10-31T11:14:05.256Z,16168
2017-10-31T11:15:15.249Z,15052
2017-10-31T11:16:25.557Z,16236
2017-10-31T11:17:35.205Z,16996
2017-10-31T11:18:45.741Z,17664
2017-10-31T11:19:55.713Z,15288
2017-10-31T11:21:06.003Z,12000
2017-10-31T11:22:15.979Z,10864
2017-10-31T11:23:25.949Z,12996
2017-10-31T11:24:36.497Z,12764
2017-10-31T11:25:46.479Z,11792
2017-10-31T11:26:56.497Z,14672
2017-10-31T11:28:06.811Z,16344
2017-10-31T11:29:17.116Z,17316
2017-10-31T11:30:27.719Z,17396
2017-10-31T11:31:38.024Z,16664
2017-10-31T11:32:48.334Z,17092
2017-10-31T11:33:58.307Z,16732
2017-10-31T11:35:08.615Z,14992
2017-10-31T11:36:19.180Z,14488
2017-10-31T11:37:29.504Z,14824
2017-10-31T11:38:39.804Z,14092
2017-10-31T11:39:50.094Z,13484
2017-10-31T11:41:00.399Z,11760
2017-10-31T11:42:10.952Z,11392
2017-10-31T11:43:21.490Z,11400
2017-10-31T11:44:31.786Z,10492
2017-10-31T11:45:42.105Z,9864
2017-10-31T11:46:52.406Z,8592
2017-10-31T11:48:02.643Z,8408
2017-10-31T11:49:12.638Z,9220
2017-10-31T11:50:22.620Z,8908
2017-10-31T11:51:32.916Z,8464
2017-10-31T11:52:43.224Z,7908
2017-10-31T11:53:53.493Z,7448
2017-10-31T11:55:03.789Z,6524
2017-10-31T11:56:13.765Z,7088
2017-10-31T11:57:23.724Z,8544
2017-10-31T11:58:33.693Z,8804
2017-10-31T11:59:43.921Z,8108
2017-10-31T12:00:53.902Z,8272
2017-10-31T12:02:03.868Z,9068
2017-10-31T12:03:14.175Z,9236
2017-10-31T12:04:23.825Z,8664
2017-10-31T12:05:34.051Z,8548
2017-10-31T12:06:44.357Z,9564
2017-10-31T12:07:54.668Z,10456
2017-10-31T12:09:04.990Z,10296
2017-10-31T12:10:15.289Z,11064
2017-10-31T12:11:25.841Z,13480
2017-10-31T12:12:36.146Z,14376
2017-10-31T12:13:45.787Z,15296
2017-10-31T12:14:56.087Z,14844
2017-10-31T12:16:06.062Z,15192
2017-10-31T12:17:16.650Z,13772
2017-10-31T12:18:26.338Z,13996
2017-10-31T12:19:36.629Z,13148
2017-10-31T12:20:46.611Z,11984
2017-10-31T12:21:56.582Z,10312
2017-10-31T12:23:06.805Z,11260
2017-10-31T12:24:17.094Z,13084
2017-10-31T12:25:27.063Z,13220
2017-10-31T12:26:37.379Z,12212
2017-10-31T12:27:47.662Z,11596
2017-10-31T12:28:58.215Z,12572
2017-10-31T12:30:08.510Z,13532
2017-10-31T12:31:18.815Z,14580
2017-10-31T12:32:29.119Z,14204
2017-10-31T12:33:39.095Z,12968
2017-10-31T12:34:49.319Z,11620
2017-10-31T12:35:59.280Z,12684
2017-10-31T12:37:09.268Z,12700
2017-10-31T12:38:19.613Z,13392
2017-10-31T12:39:30.127Z,14572
2017-10-31T12:40:40.681Z,15900
2017-10-31T12:41:50.650Z,16936
2017-10-31T12:43:00.982Z,16404
2017-10-31T12:44:10.960Z,14924
2017-10-31T12:45:20.924Z,13076
2017-10-31T12:46:30.545Z,12196
2017-10-31T12:47:40.864Z,12972
2017-10-31T12:48:51.163Z,14900
2017-10-31T12:50:01.478Z,15328
2017-10-31T12:51:11.777Z,15136
2017-10-31T12:52:21.989Z,15224
2017-10-31T12:53:31.989Z,16260
2017-10-31T12:54:42.283Z,15320
2017-10-31T12:55:52.587Z,15712
2017-10-31T12:57:02.557Z,14620
2017-10-31T12:58:13.111Z,12296
2017-10-31T12:59:23.428Z,12196
2017-10-31T13:00:33.777Z,11676
2017-10-31T13:01:43.753Z,11672
2017-10-31T13:02:54.051Z,11900
2017-10-31T13:04:04.586Z,12292
2017-10-31T13:05:14.878Z,11980
2017-10-31T13:06:25.185Z,11984
2017-10-31T13:07:35.476Z,11984
2017-10-31T13:08:45.437Z,11132
2017-10-31T13:09:55.334Z,9920
2017-10-31T13:11:05.628Z,10476
2017-10-31T13:12:15.920Z,10464
2017-10-31T13:13:26.209Z,10568
2017-10-31T13:14:36.189Z,10752
2017-10-31T13:15:46.470Z,10796
2017-10-31T13:16:56.771Z,12916
2017-10-31T13:18:07.072Z,13756
2017-10-31T13:19:16.727Z,13988
2017-10-31T13:20:27.053Z,14192
2017-10-31T13:21:37.606Z,14416
2017-10-31T13:22:47.944Z,15004
2017-10-31T13:23:58.247Z,14732
2017-10-31T13:25:08.251Z,17344
2017-10-31T13:26:18.551Z,18688
2017-10-31T13:27:29.098Z,18848
2017-10-31T13:28:38.738Z,17600
2017-10-31T13:29:48.698Z,20896
2017-10-31T13:30:58.361Z,14808
2017-10-31T13:32:08.651Z,10136
2017-10-31T13:33:19.200Z,10000
2017-10-31T13:34:29.155Z,12532
2017-10-31T13:35:39.135Z,15960
2017-10-31T13:36:49.105Z,15040
2017-10-31T13:37:59.405Z,12264
2017-10-31T13:39:09.637Z,9280
2017-10-31T13:40:19.623Z,7580
2017-10-31T13:41:29.965Z,13268
2017-10-31T13:42:39.950Z,9252
2017-10-31T13:43:50.251Z,9436
2017-10-31T13:45:00.806Z,12120
2017-10-31T13:46:11.132Z,15960
2017-10-31T13:47:21.441Z,15412
2017-10-31T13:48:31.410Z,14300
2017-10-31T13:49:41.044Z,16056
2017-10-31T13:50:51.631Z,16736
2017-10-31T13:52:01.955Z,24608
2017-10-31T13:53:12.262Z,13000
2017-10-31T13:54:22.269Z,10136
2017-10-31T13:55:32.263Z,8244
2017-10-31T13:56:42.824Z,7748
2017-10-31T13:57:52.485Z,7796
2017-10-31T13:59:02.780Z,6368
2017-10-31T14:00:13.103Z,5216
2017-10-31T14:01:23.396Z,4296
2017-10-31T14:02:33.618Z,3828
2017-10-31T14:03:43.916Z,4464
2017-10-31T14:04:54.227Z,5008
2017-10-31T14:06:04.208Z,5352
2017-10-31T14:07:14.510Z,5772
2017-10-31T14:08:24.735Z,7324
2017-10-31T14:09:34.376Z,7504
2017-10-31T14:10:44.697Z,6724
2017-10-31T14:11:55.015Z,6604
2017-10-31T14:13:04.985Z,7780
2017-10-31T14:14:15.533Z,9600
2017-10-31T14:15:25.828Z,8512
2017-10-31T14:16:35.805Z,8088
2017-10-31T14:17:45.775Z,9068
2017-10-31T14:18:56.080Z,11856
2017-10-31T14:20:06.635Z,14608
2017-10-31T14:21:16.592Z,13920
2017-10-31T14:22:26.887Z,12528
2017-10-31T14:23:37.210Z,11200
2017-10-31T14:24:47.181Z,10808
2017-10-31T14:25:57.742Z,8564
2017-10-31T14:27:08.056Z,7504
2017-10-31T14:28:18.043Z,6972
2017-10-31T14:29:28.037Z,6668
2017-10-31T14:30:38.366Z,6188
2017-10-31T14:31:48.928Z,5588
2017-10-31T14:32:59.235Z,4900
2017-10-31T14:34:09.541Z,4512
2017-10-31T14:35:19.848Z,4304
2017-10-31T14:36:29.814Z,4144
2017-10-31T14:37:40.388Z,4204
2017-10-31T14:38:50.362Z,4284
2017-10-31T14:40:00.333Z,4424
2017-10-31T14:41:10.640Z,4756
2017-10-31T14:42:20.619Z,4972
2017-10-31T14:43:30.843Z,4980
2017-10-31T14:44:41.149Z,5424
2017-10-31T14:45:51.453Z,5904
2017-10-31T14:47:01.774Z,6008
2017-10-31T14:48:12.071Z,5636
2017-10-31T14:49:21.969Z,5088
2017-10-31T14:50:32.267Z,4856
2017-10-31T14:51:41.915Z,4932
2017-10-31T14:52:51.884Z,4924
2017-10-31T14:54:01.839Z,4656
2017-10-31T14:55:12.401Z,4400
2017-10-31T14:56:22.058Z,4872
2017-10-31T14:57:32.034Z,5176
2017-10-31T14:58:42.320Z,4928
2017-10-31T14:59:52.302Z,4540
2017-10-31T15:01:02.850Z,4580
2017-10-31T15:02:12.827Z,4212
2017-10-31T15:03:22.483Z,4200
2017-10-31T15:04:32.789Z,3940
2017-10-31T15:05:42.778Z,3280
2017-10-31T15:06:53.335Z,2880
2017-10-31T15:08:03.322Z,2668
2017-10-31T15:09:13.639Z,2524
2017-10-31T15:10:24.185Z,2528
2017-10-31T15:11:33.860Z,2444
2017-10-31T15:12:44.418Z,2436
2017-10-31T15:13:54.726Z,2472
2017-10-31T15:15:05.038Z,2472
2017-10-31T15:16:15.346Z,2344
2017-10-31T15:17:25.647Z,2256
2017-10-31T15:18:35.880Z,2172
2017-10-31T15:19:45.854Z,2068
2017-10-31T15:20:56.163Z,1880
2017-10-31T15:22:06.451Z,1644
2017-10-31T15:23:16.750Z,1428
2017-10-31T15:24:27.288Z,1232
2017-10-31T15:25:36.938Z,1120
2017-10-31T15:26:47.264Z,1104
2017-10-31T15:27:57.579Z,1072
2017-10-31T15:29:07.865Z,1028
2017-10-31T15:30:18.404Z,1020
2017-10-31T15:31:28.718Z,968
2017-10-31T15:32:39.017Z,904
2017-10-31T15:33:49.315Z,832
2017-10-31T15:34:59.284Z,744
2017-10-31T15:36:09.522Z,656
2017-10-31T15:37:19.501Z,572
2017-10-31T15:38:29.495Z,496
2017-10-31T15:39:39.143Z,432
2017-10-31T15:40:49.128Z,360
2017-10-31T15:41:59.683Z,296
2017-10-31T15:43:09.677Z,244
2017-10-31T15:44:19.994Z,200
2017-10-31T15:45:30.316Z,164
2017-10-31T15:46:40.649Z,136
2017-10-31T15:47:51.190Z,120
2017-10-31T15:49:01.481Z,100
2017-10-31T15:50:11.467Z,84
2017-10-31T15:51:21.776Z,68
2017-10-31T15:52:31.743Z,56
2017-10-31T15:53:42.311Z,48
2017-10-31T15:54:52.617Z,40
2017-10-31T15:56:02.582Z,36
2017-10-31T15:57:12.885Z,32
2017-10-31T15:58:22.858Z,28
2017-10-31T15:59:33.443Z,20
2017-10-31T16:00:43.749Z,16
2017-10-31T16:01:53.724Z,16